sensor_id;sensor_type;location;lat;lon;timestamp;temperature;humidity
18446;DHT22;9352;50.888;4.466;2023-02-11T00:01:53;6.90;99.90
18446;DHT22;9352;50.888;4.466;2023-02-11T00:04:21;6.80;99.90
18446;DHT22;9352;50.888;4.466;2023-02-11T00:06:48;6.80;99.90
18446;DHT22;9352;50.888;4.466;2023-02-11T00:09:15;6.80;99.90
18446;DHT22;9352;50.888;4.466;2023-02-11T00:11:42;6.80;99.90
18446;DHT22;9352;50.888;4.466;2023-02-11T00:14:09;6.70;99.90
18446;DHT22;9352;50.888;4.466;2023-02-11T00:16:37;6.70;99.90
18446;DHT22;9352;50.888;4.466;2023-02-11T00:19:04;6.60;99.90
18446;DHT22;9352;50.888;4.466;2023-02-11T00:21:33;6.70;99.90
18446;DHT22;9352;50.888;4.466;2023-02-11T00:24:00;6.60;99.90
18446;DHT22;9352;50.888;4.466;2023-02-11T00:26:29;6.60;99.90
18446;DHT22;9352;50.888;4.466;2023-02-11T00:28:56;6.50;99.90
18446;DHT22;9352;50.888;4.466;2023-02-11T00:31:24;6.50;99.90
18446;DHT22;9352;50.888;4.466;2023-02-11T00:33:51;6.50;99.90
18446;DHT22;9352;50.888;4.466;2023-02-11T00:36:20;6.50;99.90
18446;DHT22;9352;50.888;4.466;2023-02-11T00:38:49;6.40;99.90
18446;DHT22;9352;50.888;4.466;2023-02-11T00:41:17;6.40;99.90
18446;DHT22;9352;50.888;4.466;2023-02-11T00:43:44;6.40;99.90
18446;DHT22;9352;50.888;4.466;2023-02-11T00:46:11;6.40;99.90
18446;DHT22;9352;50.888;4.466;2023-02-11T00:48:38;6.40;99.90
18446;DHT22;9352;50.888;4.466;2023-02-11T00:51:05;6.30;99.90
18446;DHT22;9352;50.888;4.466;2023-02-11T00:53:33;6.30;99.90
18446;DHT22;9352;50.888;4.466;2023-02-11T00:56:02;6.30;99.90
18446;DHT22;9352;50.888;4.466;2023-02-11T00:58:29;6.30;99.90
18446;DHT22;9352;50.888;4.466;2023-02-11T01:00:56;6.30;99.90
18446;DHT22;9352;50.888;4.466;2023-02-11T01:03:23;6.30;99.90
18446;DHT22;9352;50.888;4.466;2023-02-11T01:05:50;6.30;99.90
18446;DHT22;9352;50.888;4.466;2023-02-11T01:08:18;6.30;99.90
18446;DHT22;9352;50.888;4.466;2023-02-11T01:10:45;6.30;99.90
18446;DHT22;9352;50.888;4.466;2023-02-11T01:13:20;6.40;99.90
18446;DHT22;9352;50.888;4.466;2023-02-11T01:15:47;6.50;99.90
18446;DHT22;9352;50.888;4.466;2023-02-11T01:18:14;6.50;99.90
18446;DHT22;9352;50.888;4.466;2023-02-11T01:20:41;6.50;99.90
18446;DHT22;9352;50.888;4.466;2023-02-11T01:23:07;6.50;99.90
18446;DHT22;9352;50.888;4.466;2023-02-11T01:25:35;6.50;99.90
18446;DHT22;9352;50.888;4.466;2023-02-11T01:28:02;6.50;99.90
18446;DHT22;9352;50.888;4.466;2023-02-11T01:30:30;6.50;99.90
18446;DHT22;9352;50.888;4.466;2023-02-11T01:32:57;6.50;99.90
18446;DHT22;9352;50.888;4.466;2023-02-11T01:35:24;6.50;99.90
18446;DHT22;9352;50.888;4.466;2023-02-11T01:37:51;6.50;99.90
18446;DHT22;9352;50.888;4.466;2023-02-11T01:40:18;6.50;99.90
18446;DHT22;9352;50.888;4.466;2023-02-11T01:42:45;6.50;99.90
18446;DHT22;9352;50.888;4.466;2023-02-11T01:48:22;6.50;99.90
18446;DHT22;9352;50.888;4.466;2023-02-11T01:50:52;6.50;99.90
18446;DHT22;9352;50.888;4.466;2023-02-11T01:53:21;6.50;99.90
18446;DHT22;9352;50.888;4.466;2023-02-11T01:56:06;6.50;99.90
18446;DHT22;9352;50.888;4.466;2023-02-11T01:58:52;6.40;99.90
18446;DHT22;9352;50.888;4.466;2023-02-11T02:01:24;6.40;99.90
18446;DHT22;9352;50.888;4.466;2023-02-11T02:03:56;6.50;99.90
18446;DHT22;9352;50.888;4.466;2023-02-11T02:06:29;6.60;99.90
18446;DHT22;9352;50.888;4.466;2023-02-11T02:09:03;6.60;99.90
18446;DHT22;9352;50.888;4.466;2023-02-11T02:11:31;6.60;99.90
18446;DHT22;9352;50.888;4.466;2023-02-11T02:13:58;6.70;99.90
18446;DHT22;9352;50.888;4.466;2023-02-11T02:16:29;6.80;99.90
18446;DHT22;9352;50.888;4.466;2023-02-11T02:19:10;6.80;99.90
18446;DHT22;9352;50.888;4.466;2023-02-11T02:22:11;6.80;99.90
18446;DHT22;9352;50.888;4.466;2023-02-11T02:24:57;6.90;99.90
18446;DHT22;9352;50.888;4.466;2023-02-11T02:27:45;6.90;99.90
18446;DHT22;9352;50.888;4.466;2023-02-11T02:30:43;6.90;99.90
18446;DHT22;9352;50.888;4.466;2023-02-11T02:36:13;6.90;99.90
18446;DHT22;9352;50.888;4.466;2023-02-11T02:38:47;6.90;99.90
18446;DHT22;9352;50.888;4.466;2023-02-11T02:41:18;7.00;99.90
18446;DHT22;9352;50.888;4.466;2023-02-11T02:43:48;7.00;99.90
18446;DHT22;9352;50.888;4.466;2023-02-11T02:46:18;7.00;99.90
18446;DHT22;9352;50.888;4.466;2023-02-11T02:48:47;7.00;99.90
18446;DHT22;9352;50.888;4.466;2023-02-11T02:51:26;7.00;99.90
18446;DHT22;9352;50.888;4.466;2023-02-11T02:54:08;7.00;99.90
18446;DHT22;9352;50.888;4.466;2023-02-11T02:56:43;7.00;99.90
18446;DHT22;9352;50.888;4.466;2023-02-11T02:59:33;7.10;99.90
18446;DHT22;9352;50.888;4.466;2023-02-11T03:02:08;7.10;99.90
18446;DHT22;9352;50.888;4.466;2023-02-11T03:04:46;7.10;99.90
18446;DHT22;9352;50.888;4.466;2023-02-11T03:07:19;7.00;99.90
18446;DHT22;9352;50.888;4.466;2023-02-11T03:09:51;7.10;99.90
18446;DHT22;9352;50.888;4.466;2023-02-11T03:12:21;7.10;99.90
18446;DHT22;9352;50.888;4.466;2023-02-11T03:14:50;7.10;99.90
18446;DHT22;9352;50.888;4.466;2023-02-11T03:17:18;7.10;99.90
18446;DHT22;9352;50.888;4.466;2023-02-11T03:19:49;7.10;99.90
18446;DHT22;9352;50.888;4.466;2023-02-11T03:22:21;7.20;99.90
18446;DHT22;9352;50.888;4.466;2023-02-11T03:24:48;7.20;99.90
18446;DHT22;9352;50.888;4.466;2023-02-11T03:27:19;7.20;99.90
18446;DHT22;9352;50.888;4.466;2023-02-11T03:29:50;7.20;99.90
18446;DHT22;9352;50.888;4.466;2023-02-11T03:32:23;7.20;99.90
18446;DHT22;9352;50.888;4.466;2023-02-11T03:34:55;7.20;99.90
18446;DHT22;9352;50.888;4.466;2023-02-11T03:37:27;7.20;99.90
18446;DHT22;9352;50.888;4.466;2023-02-11T03:39:58;7.20;99.90
18446;DHT22;9352;50.888;4.466;2023-02-11T03:42:30;7.20;99.90
18446;DHT22;9352;50.888;4.466;2023-02-11T03:45:02;7.20;99.90
18446;DHT22;9352;50.888;4.466;2023-02-11T03:47:33;7.20;99.90
18446;DHT22;9352;50.888;4.466;2023-02-11T03:50:05;7.30;99.90
18446;DHT22;9352;50.888;4.466;2023-02-11T03:52:34;7.30;99.90
18446;DHT22;9352;50.888;4.466;2023-02-11T03:55:07;7.20;99.90
18446;DHT22;9352;50.888;4.466;2023-02-11T03:57:35;7.20;99.90
18446;DHT22;9352;50.888;4.466;2023-02-11T04:00:03;7.30;99.90
18446;DHT22;9352;50.888;4.466;2023-02-11T04:02:33;7.30;99.90
18446;DHT22;9352;50.888;4.466;2023-02-11T04:05:04;7.30;99.90
18446;DHT22;9352;50.888;4.466;2023-02-11T04:07:32;7.30;99.90
18446;DHT22;9352;50.888;4.466;2023-02-11T04:09:59;7.30;99.90
18446;DHT22;9352;50.888;4.466;2023-02-11T04:12:26;7.30;99.90
18446;DHT22;9352;50.888;4.466;2023-02-11T04:14:53;7.30;99.90
18446;DHT22;9352;50.888;4.466;2023-02-11T04:17:20;7.30;99.90
18446;DHT22;9352;50.888;4.466;2023-02-11T04:19:47;7.30;99.90
18446;DHT22;9352;50.888;4.466;2023-02-11T04:22:15;7.40;99.90
18446;DHT22;9352;50.888;4.466;2023-02-11T04:24:42;7.40;99.90
18446;DHT22;9352;50.888;4.466;2023-02-11T04:27:09;7.40;99.90
18446;DHT22;9352;50.888;4.466;2023-02-11T04:29:36;7.40;99.90
18446;DHT22;9352;50.888;4.466;2023-02-11T04:32:03;7.40;99.90
18446;DHT22;9352;50.888;4.466;2023-02-11T04:34:30;7.30;99.90
18446;DHT22;9352;50.888;4.466;2023-02-11T04:36:57;7.40;99.90
18446;DHT22;9352;50.888;4.466;2023-02-11T04:39:26;7.30;99.90
18446;DHT22;9352;50.888;4.466;2023-02-11T04:41:52;7.40;99.90
18446;DHT22;9352;50.888;4.466;2023-02-11T04:44:19;7.40;99.90
18446;DHT22;9352;50.888;4.466;2023-02-11T04:46:46;7.40;99.90
18446;DHT22;9352;50.888;4.466;2023-02-11T04:49:14;7.40;99.90
18446;DHT22;9352;50.888;4.466;2023-02-11T04:51:41;7.30;99.90
18446;DHT22;9352;50.888;4.466;2023-02-11T04:54:10;7.40;99.90
18446;DHT22;9352;50.888;4.466;2023-02-11T04:56:38;7.40;99.90
18446;DHT22;9352;50.888;4.466;2023-02-11T04:59:05;7.30;99.90
18446;DHT22;9352;50.888;4.466;2023-02-11T05:01:32;7.30;99.90
18446;DHT22;9352;50.888;4.466;2023-02-11T05:03:59;7.30;99.90
18446;DHT22;9352;50.888;4.466;2023-02-11T05:06:26;7.30;99.90
18446;DHT22;9352;50.888;4.466;2023-02-11T05:08:53;7.30;99.90
18446;DHT22;9352;50.888;4.466;2023-02-11T05:11:23;7.30;99.90
18446;DHT22;9352;50.888;4.466;2023-02-11T05:13:51;7.30;99.90
18446;DHT22;9352;50.888;4.466;2023-02-11T05:16:19;7.40;99.90
18446;DHT22;9352;50.888;4.466;2023-02-11T05:18:46;7.30;99.90
18446;DHT22;9352;50.888;4.466;2023-02-11T05:21:16;7.30;99.90
18446;DHT22;9352;50.888;4.466;2023-02-11T05:23:43;7.40;99.90
18446;DHT22;9352;50.888;4.466;2023-02-11T05:26:11;7.30;99.90
18446;DHT22;9352;50.888;4.466;2023-02-11T05:28:40;7.30;99.90
18446;DHT22;9352;50.888;4.466;2023-02-11T05:31:09;7.40;99.90
18446;DHT22;9352;50.888;4.466;2023-02-11T05:33:36;7.40;99.90
18446;DHT22;9352;50.888;4.466;2023-02-11T05:36:05;7.40;99.90
18446;DHT22;9352;50.888;4.466;2023-02-11T05:38:33;7.40;99.90
18446;DHT22;9352;50.888;4.466;2023-02-11T05:41:00;7.40;99.90
18446;DHT22;9352;50.888;4.466;2023-02-11T05:43:27;7.40;99.90
18446;DHT22;9352;50.888;4.466;2023-02-11T05:45:54;7.40;99.90
18446;DHT22;9352;50.888;4.466;2023-02-11T05:48:23;7.40;99.90
18446;DHT22;9352;50.888;4.466;2023-02-11T05:50:49;7.40;99.90
18446;DHT22;9352;50.888;4.466;2023-02-11T05:53:16;7.40;99.90
18446;DHT22;9352;50.888;4.466;2023-02-11T05:55:43;7.40;99.90
18446;DHT22;9352;50.888;4.466;2023-02-11T05:58:10;7.40;99.90
18446;DHT22;9352;50.888;4.466;2023-02-11T06:00:38;7.40;99.90
18446;DHT22;9352;50.888;4.466;2023-02-11T06:03:05;7.40;99.90
18446;DHT22;9352;50.888;4.466;2023-02-11T06:05:33;7.40;99.90
18446;DHT22;9352;50.888;4.466;2023-02-11T06:08:00;7.40;99.90
18446;DHT22;9352;50.888;4.466;2023-02-11T06:10:27;7.40;99.90
18446;DHT22;9352;50.888;4.466;2023-02-11T06:12:54;7.40;99.90
18446;DHT22;9352;50.888;4.466;2023-02-11T06:15:21;7.40;99.90
18446;DHT22;9352;50.888;4.466;2023-02-11T06:17:48;7.50;99.90
18446;DHT22;9352;50.888;4.466;2023-02-11T06:20:15;7.50;99.90
18446;DHT22;9352;50.888;4.466;2023-02-11T06:22:43;7.40;99.90
18446;DHT22;9352;50.888;4.466;2023-02-11T06:25:10;7.50;99.90
18446;DHT22;9352;50.888;4.466;2023-02-11T06:27:38;7.50;99.90
18446;DHT22;9352;50.888;4.466;2023-02-11T06:30:06;7.50;99.90
18446;DHT22;9352;50.888;4.466;2023-02-11T06:32:33;7.50;99.90
18446;DHT22;9352;50.888;4.466;2023-02-11T06:35:00;7.50;99.90
18446;DHT22;9352;50.888;4.466;2023-02-11T06:37:27;7.50;99.90
18446;DHT22;9352;50.888;4.466;2023-02-11T06:39:56;7.50;99.90
18446;DHT22;9352;50.888;4.466;2023-02-11T06:42:22;7.50;99.90
18446;DHT22;9352;50.888;4.466;2023-02-11T06:44:49;7.50;99.90
18446;DHT22;9352;50.888;4.466;2023-02-11T06:47:16;7.50;99.90
18446;DHT22;9352;50.888;4.466;2023-02-11T06:49:43;7.50;99.90
18446;DHT22;9352;50.888;4.466;2023-02-11T06:52:10;7.50;99.90
18446;DHT22;9352;50.888;4.466;2023-02-11T06:54:37;7.50;99.90
18446;DHT22;9352;50.888;4.466;2023-02-11T06:57:05;7.50;99.90
18446;DHT22;9352;50.888;4.466;2023-02-11T06:59:32;7.50;99.90
18446;DHT22;9352;50.888;4.466;2023-02-11T07:01:59;7.50;99.90
18446;DHT22;9352;50.888;4.466;2023-02-11T07:04:26;7.50;99.90
18446;DHT22;9352;50.888;4.466;2023-02-11T07:06:53;7.60;99.90
18446;DHT22;9352;50.888;4.466;2023-02-11T07:09:20;7.60;99.90
18446;DHT22;9352;50.888;4.466;2023-02-11T07:11:46;7.50;99.90
18446;DHT22;9352;50.888;4.466;2023-02-11T07:14:15;7.50;99.90
18446;DHT22;9352;50.888;4.466;2023-02-11T07:16:42;7.60;99.90
18446;DHT22;9352;50.888;4.466;2023-02-11T07:19:09;7.60;99.90
18446;DHT22;9352;50.888;4.466;2023-02-11T07:21:36;7.50;99.90
18446;DHT22;9352;50.888;4.466;2023-02-11T07:24:05;7.60;99.90
18446;DHT22;9352;50.888;4.466;2023-02-11T07:26:32;7.60;99.90
18446;DHT22;9352;50.888;4.466;2023-02-11T07:28:59;7.60;99.90
18446;DHT22;9352;50.888;4.466;2023-02-11T07:31:28;7.60;99.90
18446;DHT22;9352;50.888;4.466;2023-02-11T07:33:57;7.60;99.90
18446;DHT22;9352;50.888;4.466;2023-02-11T07:36:25;7.60;99.90
18446;DHT22;9352;50.888;4.466;2023-02-11T07:38:52;7.70;99.90
18446;DHT22;9352;50.888;4.466;2023-02-11T07:41:21;7.70;99.90
18446;DHT22;9352;50.888;4.466;2023-02-11T07:43:48;7.70;99.90
18446;DHT22;9352;50.888;4.466;2023-02-11T07:46:16;7.70;99.90
18446;DHT22;9352;50.888;4.466;2023-02-11T07:48:45;7.70;99.90
18446;DHT22;9352;50.888;4.466;2023-02-11T07:51:13;7.80;99.90
18446;DHT22;9352;50.888;4.466;2023-02-11T07:53:41;7.80;99.90
18446;DHT22;9352;50.888;4.466;2023-02-11T07:56:09;7.80;99.90
18446;DHT22;9352;50.888;4.466;2023-02-11T07:58:36;7.80;99.90
18446;DHT22;9352;50.888;4.466;2023-02-11T08:01:04;7.80;99.90
18446;DHT22;9352;50.888;4.466;2023-02-11T08:03:32;7.80;99.90
18446;DHT22;9352;50.888;4.466;2023-02-11T08:06:04;7.90;99.90
18446;DHT22;9352;50.888;4.466;2023-02-11T08:08:31;7.90;99.90
18446;DHT22;9352;50.888;4.466;2023-02-11T08:10:58;7.90;99.90
18446;DHT22;9352;50.888;4.466;2023-02-11T08:13:25;7.90;99.90
18446;DHT22;9352;50.888;4.466;2023-02-11T08:15:52;7.90;99.90
18446;DHT22;9352;50.888;4.466;2023-02-11T08:18:19;7.90;99.90
18446;DHT22;9352;50.888;4.466;2023-02-11T08:20:45;8.00;99.90
18446;DHT22;9352;50.888;4.466;2023-02-11T08:23:14;8.00;99.90
18446;DHT22;9352;50.888;4.466;2023-02-11T08:25:41;8.00;99.90
18446;DHT22;9352;50.888;4.466;2023-02-11T08:28:07;8.00;99.90
18446;DHT22;9352;50.888;4.466;2023-02-11T08:30:34;8.00;99.90
18446;DHT22;9352;50.888;4.466;2023-02-11T08:33:01;8.00;99.90
18446;DHT22;9352;50.888;4.466;2023-02-11T08:35:28;8.00;99.90
18446;DHT22;9352;50.888;4.466;2023-02-11T08:37:55;8.10;99.90
18446;DHT22;9352;50.888;4.466;2023-02-11T08:40:24;8.10;99.90
18446;DHT22;9352;50.888;4.466;2023-02-11T08:42:51;8.10;99.90
18446;DHT22;9352;50.888;4.466;2023-02-11T08:45:17;8.10;99.90
18446;DHT22;9352;50.888;4.466;2023-02-11T08:47:44;8.10;99.90
18446;DHT22;9352;50.888;4.466;2023-02-11T08:50:11;8.10;99.90
18446;DHT22;9352;50.888;4.466;2023-02-11T08:52:38;8.10;99.90
18446;DHT22;9352;50.888;4.466;2023-02-11T08:55:06;8.10;99.90
18446;DHT22;9352;50.888;4.466;2023-02-11T08:57:34;8.20;99.90
18446;DHT22;9352;50.888;4.466;2023-02-11T09:00:01;8.10;99.90
18446;DHT22;9352;50.888;4.466;2023-02-11T09:02:28;8.10;99.90
18446;DHT22;9352;50.888;4.466;2023-02-11T09:04:55;8.20;99.90
18446;DHT22;9352;50.888;4.466;2023-02-11T09:07:22;8.20;99.90
18446;DHT22;9352;50.888;4.466;2023-02-11T09:09:49;8.10;99.90
18446;DHT22;9352;50.888;4.466;2023-02-11T09:12:16;8.20;99.90
18446;DHT22;9352;50.888;4.466;2023-02-11T09:14:44;8.20;99.90
18446;DHT22;9352;50.888;4.466;2023-02-11T09:17:11;8.20;99.90
18446;DHT22;9352;50.888;4.466;2023-02-11T09:19:38;8.20;99.90
18446;DHT22;9352;50.888;4.466;2023-02-11T09:22:05;8.30;99.90
18446;DHT22;9352;50.888;4.466;2023-02-11T09:24:32;8.30;99.90
18446;DHT22;9352;50.888;4.466;2023-02-11T09:26:58;8.30;99.90
18446;DHT22;9352;50.888;4.466;2023-02-11T09:29:25;8.30;99.90
18446;DHT22;9352;50.888;4.466;2023-02-11T09:31:54;8.30;99.90
18446;DHT22;9352;50.888;4.466;2023-02-11T09:34:20;8.30;99.90
18446;DHT22;9352;50.888;4.466;2023-02-11T09:36:47;8.30;99.90
18446;DHT22;9352;50.888;4.466;2023-02-11T09:39:16;8.40;99.90
18446;DHT22;9352;50.888;4.466;2023-02-11T09:42:00;8.40;99.90
18446;DHT22;9352;50.888;4.466;2023-02-11T09:44:32;8.40;99.90
18446;DHT22;9352;50.888;4.466;2023-02-11T09:47:02;8.60;99.90
18446;DHT22;9352;50.888;4.466;2023-02-11T09:49:34;8.60;99.90
18446;DHT22;9352;50.888;4.466;2023-02-11T09:52:07;8.70;99.90
18446;DHT22;9352;50.888;4.466;2023-02-11T09:54:43;8.70;99.90
18446;DHT22;9352;50.888;4.466;2023-02-11T09:57:14;8.70;99.90
18446;DHT22;9352;50.888;4.466;2023-02-11T09:59:41;8.80;99.90
18446;DHT22;9352;50.888;4.466;2023-02-11T10:02:16;8.80;99.90
18446;DHT22;9352;50.888;4.466;2023-02-11T10:07:55;8.90;99.90
18446;DHT22;9352;50.888;4.466;2023-02-11T10:10:42;9.00;99.90
18446;DHT22;9352;50.888;4.466;2023-02-11T10:13:40;9.10;99.90
18446;DHT22;9352;50.888;4.466;2023-02-11T10:16:25;9.10;99.90
18446;DHT22;9352;50.888;4.466;2023-02-11T10:19:12;9.10;99.90
18446;DHT22;9352;50.888;4.466;2023-02-11T10:21:52;9.20;99.90
18446;DHT22;9352;50.888;4.466;2023-02-11T10:24:23;9.20;99.90
18446;DHT22;9352;50.888;4.466;2023-02-11T10:26:52;9.20;99.90
18446;DHT22;9352;50.888;4.466;2023-02-11T10:29:32;9.20;99.90
18446;DHT22;9352;50.888;4.466;2023-02-11T10:32:04;9.20;99.90
18446;DHT22;9352;50.888;4.466;2023-02-11T10:34:40;9.20;99.90
18446;DHT22;9352;50.888;4.466;2023-02-11T10:37:08;9.20;99.90
18446;DHT22;9352;50.888;4.466;2023-02-11T10:39:35;9.20;99.90
18446;DHT22;9352;50.888;4.466;2023-02-11T10:42:07;9.20;99.90
18446;DHT22;9352;50.888;4.466;2023-02-11T10:44:38;9.30;99.90
18446;DHT22;9352;50.888;4.466;2023-02-11T10:47:10;9.40;99.90
18446;DHT22;9352;50.888;4.466;2023-02-11T10:49:43;9.40;99.90
18446;DHT22;9352;50.888;4.466;2023-02-11T10:52:18;9.40;99.90
18446;DHT22;9352;50.888;4.466;2023-02-11T10:55:04;9.30;99.90
18446;DHT22;9352;50.888;4.466;2023-02-11T10:57:36;9.20;99.90
18446;DHT22;9352;50.888;4.466;2023-02-11T11:00:07;9.20;99.90
18446;DHT22;9352;50.888;4.466;2023-02-11T11:02:35;9.30;99.90
18446;DHT22;9352;50.888;4.466;2023-02-11T11:05:17;9.40;99.90
18446;DHT22;9352;50.888;4.466;2023-02-11T11:07:52;9.30;99.90
18446;DHT22;9352;50.888;4.466;2023-02-11T11:10:27;9.30;99.90
18446;DHT22;9352;50.888;4.466;2023-02-11T11:12:54;9.30;99.90
18446;DHT22;9352;50.888;4.466;2023-02-11T11:15:22;9.30;99.90
18446;DHT22;9352;50.888;4.466;2023-02-11T11:17:50;9.20;99.90
18446;DHT22;9352;50.888;4.466;2023-02-11T11:20:34;9.20;99.90
18446;DHT22;9352;50.888;4.466;2023-02-11T11:23:14;9.30;99.90
18446;DHT22;9352;50.888;4.466;2023-02-11T11:25:44;9.30;99.90
18446;DHT22;9352;50.888;4.466;2023-02-11T11:28:21;9.30;99.90
18446;DHT22;9352;50.888;4.466;2023-02-11T11:30:51;9.30;99.90
18446;DHT22;9352;50.888;4.466;2023-02-11T11:33:21;9.30;99.90
18446;DHT22;9352;50.888;4.466;2023-02-11T11:35:58;9.30;99.90
18446;DHT22;9352;50.888;4.466;2023-02-11T11:38:27;9.30;99.90
18446;DHT22;9352;50.888;4.466;2023-02-11T11:41:14;9.40;99.90
18446;DHT22;9352;50.888;4.466;2023-02-11T11:43:54;9.40;99.90
18446;DHT22;9352;50.888;4.466;2023-02-11T11:46:27;9.40;99.90
18446;DHT22;9352;50.888;4.466;2023-02-11T11:48:58;9.50;99.90
18446;DHT22;9352;50.888;4.466;2023-02-11T11:51:28;9.50;99.90
18446;DHT22;9352;50.888;4.466;2023-02-11T11:53:59;9.50;99.90
18446;DHT22;9352;50.888;4.466;2023-02-11T11:56:29;9.50;99.90
18446;DHT22;9352;50.888;4.466;2023-02-11T11:58:59;9.50;99.90
18446;DHT22;9352;50.888;4.466;2023-02-11T12:01:33;9.60;99.90
18446;DHT22;9352;50.888;4.466;2023-02-11T12:04:36;9.60;99.90
18446;DHT22;9352;50.888;4.466;2023-02-11T12:07:18;9.60;99.90
18446;DHT22;9352;50.888;4.466;2023-02-11T12:10:10;9.60;99.90
18446;DHT22;9352;50.888;4.466;2023-02-11T12:12:46;9.60;99.90
18446;DHT22;9352;50.888;4.466;2023-02-11T12:15:30;9.60;99.90
18446;DHT22;9352;50.888;4.466;2023-02-11T12:18:16;9.60;99.90
18446;DHT22;9352;50.888;4.466;2023-02-11T12:20:58;9.60;99.90
18446;DHT22;9352;50.888;4.466;2023-02-11T12:23:51;9.60;99.90
18446;DHT22;9352;50.888;4.466;2023-02-11T12:26:23;9.70;99.90
18446;DHT22;9352;50.888;4.466;2023-02-11T12:29:01;9.80;99.90
18446;DHT22;9352;50.888;4.466;2023-02-11T12:31:41;9.80;99.90
18446;DHT22;9352;50.888;4.466;2023-02-11T12:34:33;9.90;99.90
18446;DHT22;9352;50.888;4.466;2023-02-11T12:37:08;9.90;99.90
18446;DHT22;9352;50.888;4.466;2023-02-11T12:39:49;9.90;99.90
18446;DHT22;9352;50.888;4.466;2023-02-11T12:42:51;9.80;99.90
18446;DHT22;9352;50.888;4.466;2023-02-11T12:48:46;9.80;99.90
18446;DHT22;9352;50.888;4.466;2023-02-11T12:51:21;9.80;99.90
18446;DHT22;9352;50.888;4.466;2023-02-11T12:54:12;9.90;99.90
18446;DHT22;9352;50.888;4.466;2023-02-11T12:56:47;9.90;99.90
18446;DHT22;9352;50.888;4.466;2023-02-11T12:59:19;9.90;99.90
18446;DHT22;9352;50.888;4.466;2023-02-11T13:01:48;9.90;99.90
18446;DHT22;9352;50.888;4.466;2023-02-11T13:04:20;9.90;99.90
18446;DHT22;9352;50.888;4.466;2023-02-11T13:06:54;9.90;99.90
18446;DHT22;9352;50.888;4.466;2023-02-11T13:09:25;9.90;99.90
18446;DHT22;9352;50.888;4.466;2023-02-11T13:11:57;10.00;99.90
18446;DHT22;9352;50.888;4.466;2023-02-11T13:14:46;10.00;99.90
18446;DHT22;9352;50.888;4.466;2023-02-11T13:17:19;10.00;99.90
18446;DHT22;9352;50.888;4.466;2023-02-11T13:19:50;10.00;99.90
18446;DHT22;9352;50.888;4.466;2023-02-11T13:22:22;10.00;99.90
18446;DHT22;9352;50.888;4.466;2023-02-11T13:24:54;10.00;99.90
18446;DHT22;9352;50.888;4.466;2023-02-11T13:27:31;10.00;99.90
18446;DHT22;9352;50.888;4.466;2023-02-11T13:30:17;10.00;99.90
18446;DHT22;9352;50.888;4.466;2023-02-11T13:33:03;10.00;99.90
18446;DHT22;9352;50.888;4.466;2023-02-11T13:35:32;10.10;99.90
18446;DHT22;9352;50.888;4.466;2023-02-11T13:38:00;10.10;99.90
18446;DHT22;9352;50.888;4.466;2023-02-11T13:40:29;10.00;99.90
18446;DHT22;9352;50.888;4.466;2023-02-11T13:43:02;10.00;99.90
18446;DHT22;9352;50.888;4.466;2023-02-11T13:45:32;10.00;99.90
18446;DHT22;9352;50.888;4.466;2023-02-11T13:48:02;10.10;99.90
18446;DHT22;9352;50.888;4.466;2023-02-11T13:50:33;10.10;99.90
18446;DHT22;9352;50.888;4.466;2023-02-11T13:53:03;10.10;99.90
18446;DHT22;9352;50.888;4.466;2023-02-11T13:55:31;10.10;99.90
18446;DHT22;9352;50.888;4.466;2023-02-11T13:58:33;10.10;99.90
18446;DHT22;9352;50.888;4.466;2023-02-11T14:01:05;10.00;99.90
18446;DHT22;9352;50.888;4.466;2023-02-11T14:03:36;10.00;99.90
18446;DHT22;9352;50.888;4.466;2023-02-11T14:06:24;10.00;99.90
18446;DHT22;9352;50.888;4.466;2023-02-11T14:09:39;10.00;99.90
18446;DHT22;9352;50.888;4.466;2023-02-11T14:12:32;10.00;99.90
18446;DHT22;9352;50.888;4.466;2023-02-11T14:15:25;10.00;99.90
18446;DHT22;9352;50.888;4.466;2023-02-11T14:17:52;10.00;99.90
18446;DHT22;9352;50.888;4.466;2023-02-11T14:20:37;10.00;99.90
18446;DHT22;9352;50.888;4.466;2023-02-11T14:23:15;10.00;99.90
18446;DHT22;9352;50.888;4.466;2023-02-11T14:26:04;10.00;99.90
18446;DHT22;9352;50.888;4.466;2023-02-11T14:28:33;10.10;99.90
18446;DHT22;9352;50.888;4.466;2023-02-11T14:31:06;10.00;99.90
18446;DHT22;9352;50.888;4.466;2023-02-11T14:34:02;10.10;99.90
18446;DHT22;9352;50.888;4.466;2023-02-11T14:39:37;10.10;99.90
18446;DHT22;9352;50.888;4.466;2023-02-11T14:42:15;10.10;99.90
18446;DHT22;9352;50.888;4.466;2023-02-11T14:44:43;10.10;99.90
18446;DHT22;9352;50.888;4.466;2023-02-11T14:47:16;10.10;99.90
18446;DHT22;9352;50.888;4.466;2023-02-11T14:49:44;10.10;99.90
18446;DHT22;9352;50.888;4.466;2023-02-11T14:52:18;10.10;99.90
18446;DHT22;9352;50.888;4.466;2023-02-11T14:54:48;10.10;99.90
18446;DHT22;9352;50.888;4.466;2023-02-11T14:57:18;10.00;99.90
18446;DHT22;9352;50.888;4.466;2023-02-11T14:59:54;10.10;99.90
18446;DHT22;9352;50.888;4.466;2023-02-11T15:02:29;10.00;99.90
18446;DHT22;9352;50.888;4.466;2023-02-11T15:05:18;10.10;99.90
18446;DHT22;9352;50.888;4.466;2023-02-11T15:07:47;10.10;99.90
18446;DHT22;9352;50.888;4.466;2023-02-11T15:10:29;10.10;99.90
18446;DHT22;9352;50.888;4.466;2023-02-11T15:12:57;10.10;99.90
18446;DHT22;9352;50.888;4.466;2023-02-11T15:15:25;10.10;99.90
18446;DHT22;9352;50.888;4.466;2023-02-11T15:17:54;10.10;99.90
18446;DHT22;9352;50.888;4.466;2023-02-11T15:20:24;10.10;99.90
18446;DHT22;9352;50.888;4.466;2023-02-11T15:22:56;10.10;99.90
18446;DHT22;9352;50.888;4.466;2023-02-11T15:25:24;10.10;99.90
18446;DHT22;9352;50.888;4.466;2023-02-11T15:27:56;10.10;99.90
18446;DHT22;9352;50.888;4.466;2023-02-11T15:30:27;10.10;99.90
18446;DHT22;9352;50.888;4.466;2023-02-11T15:32:58;10.10;99.90
18446;DHT22;9352;50.888;4.466;2023-02-11T15:35:29;10.10;99.90
18446;DHT22;9352;50.888;4.466;2023-02-11T15:37:58;10.10;99.90
18446;DHT22;9352;50.888;4.466;2023-02-11T15:40:26;10.10;99.90
18446;DHT22;9352;50.888;4.466;2023-02-11T15:42:55;10.00;99.90
18446;DHT22;9352;50.888;4.466;2023-02-11T15:45:25;10.00;99.90
18446;DHT22;9352;50.888;4.466;2023-02-11T15:48:05;10.00;99.90
18446;DHT22;9352;50.888;4.466;2023-02-11T15:50:35;10.00;99.90
18446;DHT22;9352;50.888;4.466;2023-02-11T15:53:21;10.00;99.90
18446;DHT22;9352;50.888;4.466;2023-02-11T15:55:52;10.00;99.90
18446;DHT22;9352;50.888;4.466;2023-02-11T15:58:21;10.00;99.90
18446;DHT22;9352;50.888;4.466;2023-02-11T16:00:54;10.00;99.90
18446;DHT22;9352;50.888;4.466;2023-02-11T16:03:31;10.00;99.90
18446;DHT22;9352;50.888;4.466;2023-02-11T16:06:14;10.00;99.90
18446;DHT22;9352;50.888;4.466;2023-02-11T16:08:41;10.10;99.90
18446;DHT22;9352;50.888;4.466;2023-02-11T16:11:23;10.00;99.90
18446;DHT22;9352;50.888;4.466;2023-02-11T16:13:51;10.00;99.90
18446;DHT22;9352;50.888;4.466;2023-02-11T16:16:19;10.00;99.90
18446;DHT22;9352;50.888;4.466;2023-02-11T16:18:51;10.00;99.90
18446;DHT22;9352;50.888;4.466;2023-02-11T16:21:19;10.00;99.90
18446;DHT22;9352;50.888;4.466;2023-02-11T16:23:52;10.00;99.90
18446;DHT22;9352;50.888;4.466;2023-02-11T16:26:23;10.00;99.90
18446;DHT22;9352;50.888;4.466;2023-02-11T16:28:52;9.90;99.90
18446;DHT22;9352;50.888;4.466;2023-02-11T16:31:19;9.90;99.90
18446;DHT22;9352;50.888;4.466;2023-02-11T16:33:47;9.90;99.90
18446;DHT22;9352;50.888;4.466;2023-02-11T16:36:15;9.90;99.90
18446;DHT22;9352;50.888;4.466;2023-02-11T16:38:42;9.90;99.90
18446;DHT22;9352;50.888;4.466;2023-02-11T16:41:09;9.90;99.90
18446;DHT22;9352;50.888;4.466;2023-02-11T16:43:37;9.90;99.90